sensor_id;sensor_type;location;lat;lon;timestamp;pressure;altitude;pressure_sealevel;temperature;humidity
58534;BME280;44109;52.398;7.024;2023-07-02T00:02:48;100332.16;;;18.14;100.00
58534;BME280;44109;52.398;7.024;2023-07-02T00:05:16;100330.38;;;18.04;100.00
58534;BME280;44109;52.398;7.024;2023-07-02T00:07:44;100335.97;;;18.04;100.00
58534;BME280;44109;52.398;7.024;2023-07-02T00:10:11;100336.59;;;18.11;100.00
58534;BME280;44109;52.398;7.024;2023-07-02T00:12:39;100337.31;;;18.15;100.00
58534;BME280;44109;52.398;7.024;2023-07-02T00:15:07;100341.59;;;18.04;100.00
58534;BME280;44109;52.398;7.024;2023-07-02T00:17:35;100334.00;;;18.20;100.00
58534;BME280;44109;52.398;7.024;2023-07-02T00:20:11;100345.97;;;18.05;100.00
58534;BME280;44109;52.398;7.024;2023-07-02T00:22:43;100333.88;;;18.08;100.00
58534;BME280;44109;52.398;7.024;2023-07-02T00:25:13;100332.34;;;18.23;100.00
58534;BME280;44109;52.398;7.024;2023-07-02T00:27:40;100340.78;;;18.03;100.00
58534;BME280;44109;52.398;7.024;2023-07-02T00:30:09;100340.91;;;18.16;100.00
58534;BME280;44109;52.398;7.024;2023-07-02T00:32:37;100331.28;;;18.17;100.00
58534;BME280;44109;52.398;7.024;2023-07-02T00:35:05;100334.50;;;18.15;100.00
58534;BME280;44109;52.398;7.024;2023-07-02T00:37:34;100328.97;;;18.12;100.00
58534;BME280;44109;52.398;7.024;2023-07-02T00:40:02;100333.00;;;18.11;100.00
58534;BME280;44109;52.398;7.024;2023-07-02T00:42:30;100332.66;;;18.09;100.00
58534;BME280;44109;52.398;7.024;2023-07-02T00:44:58;100336.47;;;17.98;100.00
58534;BME280;44109;52.398;7.024;2023-07-02T00:47:28;100314.94;;;18.12;100.00
58534;BME280;44109;52.398;7.024;2023-07-02T00:49:57;100322.16;;;18.13;100.00
58534;BME280;44109;52.398;7.024;2023-07-02T00:52:25;100320.53;;;18.12;100.00
58534;BME280;44109;52.398;7.024;2023-07-02T00:54:54;100315.03;;;18.08;100.00
58534;BME280;44109;52.398;7.024;2023-07-02T00:57:21;100325.66;;;17.97;100.00
58534;BME280;44109;52.398;7.024;2023-07-02T00:59:56;100321.22;;;17.99;100.00
58534;BME280;44109;52.398;7.024;2023-07-02T01:02:26;100323.25;;;17.99;100.00
58534;BME280;44109;52.398;7.024;2023-07-02T01:04:55;100328.75;;;18.03;100.00
58534;BME280;44109;52.398;7.024;2023-07-02T01:07:25;100324.31;;;18.05;100.00
58534;BME280;44109;52.398;7.024;2023-07-02T01:09:54;100327.75;;;18.13;100.00
58534;BME280;44109;52.398;7.024;2023-07-02T01:12:22;100326.97;;;18.12;100.00
58534;BME280;44109;52.398;7.024;2023-07-02T01:14:51;100332.78;;;18.02;100.00
58534;BME280;44109;52.398;7.024;2023-07-02T01:17:23;100332.78;;;18.02;100.00
58534;BME280;44109;52.398;7.024;2023-07-02T01:19:55;100336.03;;;18.00;100.00
58534;BME280;44109;52.398;7.024;2023-07-02T01:22:26;100334.53;;;17.95;100.00
58534;BME280;44109;52.398;7.024;2023-07-02T01:24:55;100337.34;;;17.95;100.00
58534;BME280;44109;52.398;7.024;2023-07-02T01:27:23;100328.75;;;18.03;100.00
58534;BME280;44109;52.398;7.024;2023-07-02T01:29:52;100332.78;;;18.02;100.00
58534;BME280;44109;52.398;7.024;2023-07-02T01:32:20;100335.97;;;18.04;100.00
58534;BME280;44109;52.398;7.024;2023-07-02T01:34:48;100331.72;;;17.95;100.00
58534;BME280;44109;52.398;7.024;2023-07-02T01:37:20;100325.09;;;18.06;100.00
58534;BME280;44109;52.398;7.024;2023-07-02T01:39:48;100314.44;;;17.97;100.00
58534;BME280;44109;52.398;7.024;2023-07-02T01:42:17;100320.72;;;18.05;100.00
58534;BME280;44109;52.398;7.024;2023-07-02T01:44:48;100332.50;;;17.96;100.00
58534;BME280;44109;52.398;7.024;2023-07-02T01:47:17;100337.34;;;17.95;100.00
58534;BME280;44109;52.398;7.024;2023-07-02T01:49:45;100343.28;;;17.97;100.00
58534;BME280;44109;52.398;7.024;2023-07-02T01:52:13;100338.41;;;18.02;100.00
58534;BME280;44109;52.398;7.024;2023-07-02T01:54:42;100347.34;;;17.96;100.00
58534;BME280;44109;52.398;7.024;2023-07-02T01:57:11;100347.84;;;17.91;100.00
58534;BME280;44109;52.398;7.024;2023-07-02T01:59:38;100344.03;;;18.02;100.00
58534;BME280;44109;52.398;7.024;2023-07-02T02:02:06;100344.88;;;17.98;100.00
58534;BME280;44109;52.398;7.024;2023-07-02T02:04:33;100342.56;;;17.93;100.00
58534;BME280;44109;52.398;7.024;2023-07-02T02:07:01;100343.66;;;17.99;100.00
58534;BME280;44109;52.398;7.024;2023-07-02T02:09:29;100345.59;;;18.03;100.00
58534;BME280;44109;52.398;7.024;2023-07-02T02:11:59;100346.81;;;18.02;100.00
58534;BME280;44109;52.398;7.024;2023-07-02T02:14:27;100347.53;;;18.06;100.00
58534;BME280;44109;52.398;7.024;2023-07-02T02:16:54;100343.66;;;17.99;100.00
58534;BME280;44109;52.398;7.024;2023-07-02T02:19:22;100336.84;;;18.00;100.00
58534;BME280;44109;52.398;7.024;2023-07-02T02:21:49;100348.72;;;18.08;100.00
58534;BME280;44109;52.398;7.024;2023-07-02T02:24:17;100350.34;;;18.06;100.00
58534;BME280;44109;52.398;7.024;2023-07-02T02:26:45;100355.97;;;18.06;100.00
58534;BME280;44109;52.398;7.024;2023-07-02T02:29:13;100354.47;;;18.01;100.00
58534;BME280;44109;52.398;7.024;2023-07-02T02:31:42;100363.81;;;17.94;100.00
58534;BME280;44109;52.398;7.024;2023-07-02T02:34:10;100369.22;;;18.05;100.00
58534;BME280;44109;52.398;7.024;2023-07-02T02:36:37;100364.09;;;18.00;100.00
58534;BME280;44109;52.398;7.024;2023-07-02T02:39:05;100362.31;;;17.90;100.00
58534;BME280;44109;52.398;7.024;2023-07-02T02:41:32;100355.97;;;17.86;100.00
58534;BME280;44109;52.398;7.024;2023-07-02T02:44:00;100359.00;;;17.95;100.00
58534;BME280;44109;52.398;7.024;2023-07-02T02:46:29;100356.25;;;17.91;100.00
58534;BME280;44109;52.398;7.024;2023-07-02T02:48:58;100359.41;;;17.93;100.00
58534;BME280;44109;52.398;7.024;2023-07-02T02:51:25;100363.16;;;17.87;100.00
58534;BME280;44109;52.398;7.024;2023-07-02T02:53:53;100361.41;;;17.73;100.00
58534;BME280;44109;52.398;7.024;2023-07-02T02:56:20;100370.19;;;17.75;100.00
58534;BME280;44109;52.398;7.024;2023-07-02T02:58:48;100365.03;;;17.73;100.00
58534;BME280;44109;52.398;7.024;2023-07-02T03:01:15;100360.59;;;17.72;100.00
58534;BME280;44109;52.398;7.024;2023-07-02T03:03:44;100376.53;;;17.79;100.00
58534;BME280;44109;52.398;7.024;2023-07-02T03:06:13;100373.91;;;17.68;100.00
58534;BME280;44109;52.398;7.024;2023-07-02T03:08:41;100367.84;;;17.70;100.00
58534;BME280;44109;52.398;7.024;2023-07-02T03:11:08;100377.59;;;17.42;100.00
58534;BME280;44109;52.398;7.024;2023-07-02T03:13:36;100370.09;;;17.35;100.00
58534;BME280;44109;52.398;7.024;2023-07-02T03:16:04;100376.78;;;17.18;100.00
58534;BME280;44109;52.398;7.024;2023-07-02T03:18:32;100384.03;;;17.15;100.00
58534;BME280;44109;52.398;7.024;2023-07-02T03:21:01;100389.59;;;16.92;100.00
58534;BME280;44109;52.398;7.024;2023-07-02T03:23:28;100388.44;;;16.89;100.00
58534;BME280;44109;52.398;7.024;2023-07-02T03:25:56;100395.09;;;16.72;100.00
58534;BME280;44109;52.398;7.024;2023-07-02T03:28:23;100395.13;;;16.68;100.00
58534;BME280;44109;52.398;7.024;2023-07-02T03:30:51;100398.91;;;16.55;100.00
58534;BME280;44109;52.398;7.024;2023-07-02T03:33:18;100400.84;;;16.58;100.00
58534;BME280;44109;52.398;7.024;2023-07-02T03:35:46;100405.63;;;16.61;100.00
58534;BME280;44109;52.398;7.024;2023-07-02T03:38:15;100414.50;;;16.56;100.00
58534;BME280;44109;52.398;7.024;2023-07-02T03:40:42;100412.59;;;16.49;100.00
58534;BME280;44109;52.398;7.024;2023-07-02T03:43:10;100407.88;;;16.42;100.00
58534;BME280;44109;52.398;7.024;2023-07-02T03:45:37;100417.94;;;16.36;100.00
58534;BME280;44109;52.398;7.024;2023-07-02T03:48:05;100414.88;;;16.27;100.00
58534;BME280;44109;52.398;7.024;2023-07-02T03:50:33;100415.63;;;16.31;100.00
58534;BME280;44109;52.398;7.024;2023-07-02T03:53:00;100420.78;;;16.33;100.00
58534;BME280;44109;52.398;7.024;2023-07-02T03:55:30;100409.16;;;16.34;100.00
58534;BME280;44109;52.398;7.024;2023-07-02T03:57:58;100417.09;;;16.39;100.00
58534;BME280;44109;52.398;7.024;2023-07-02T04:00:26;100423.56;;;16.36;100.00
58534;BME280;44109;52.398;7.024;2023-07-02T04:02:53;100425.06;;;16.44;100.00
58534;BME280;44109;52.398;7.024;2023-07-02T04:05:21;100424.22;;;16.44;100.00
58534;BME280;44109;52.398;7.024;2023-07-02T04:07:48;100430.50;;;16.55;100.00
58534;BME280;44109;52.398;7.024;2023-07-02T04:10:16;100437.72;;;16.53;100.00
58534;BME280;44109;52.398;7.024;2023-07-02T04:12:45;100426.34;;;16.36;100.00
58534;BME280;44109;52.398;7.024;2023-07-02T04:15:12;100428.72;;;16.38;100.00
58534;BME280;44109;52.398;7.024;2023-07-02T04:17:40;100433.16;;;16.35;100.00
58534;BME280;44109;52.398;7.024;2023-07-02T04:20:08;100424.31;;;16.40;100.00
58534;BME280;44109;52.398;7.024;2023-07-02T04:22:37;100433.03;;;16.46;100.00
58534;BME280;44109;52.398;7.024;2023-07-02T04:25:05;100435.69;;;16.57;100.00
58534;BME280;44109;52.398;7.024;2023-07-02T04:27:33;100430.53;;;16.52;100.00
58534;BME280;44109;52.398;7.024;2023-07-02T04:30:02;100432.28;;;16.42;100.00
58534;BME280;44109;52.398;7.024;2023-07-02T04:32:31;100440.25;;;16.43;100.00
58534;BME280;44109;52.398;7.024;2023-07-02T04:34:59;100428.66;;;16.45;100.00
58534;BME280;44109;52.398;7.024;2023-07-02T04:37:28;100439.22;;;16.61;100.00
58534;BME280;44109;52.398;7.024;2023-07-02T04:39:55;100441.88;;;16.75;100.00
58534;BME280;44109;52.398;7.024;2023-07-02T04:42:23;100449.66;;;16.91;100.00
58534;BME280;44109;52.398;7.024;2023-07-02T04:44:53;100449.41;;;17.09;100.00
58534;BME280;44109;52.398;7.024;2023-07-02T04:47:22;100432.06;;;17.17;100.00
58534;BME280;44109;52.398;7.024;2023-07-02T04:49:49;100458.78;;;17.49;100.00
58534;BME280;44109;52.398;7.024;2023-07-02T04:52:17;100454.78;;;17.73;100.00
58534;BME280;44109;52.398;7.024;2023-07-02T04:54:45;100456.00;;;17.72;100.00
58534;BME280;44109;52.398;7.024;2023-07-02T04:57:12;100448.44;;;17.93;100.00
58534;BME280;44109;52.398;7.024;2023-07-02T04:59:41;100444.72;;;17.99;100.00
58534;BME280;44109;52.398;7.024;2023-07-02T05:02:09;100458.25;;;18.05;100.00
58534;BME280;44109;52.398;7.024;2023-07-02T05:04:38;100461.94;;;18.21;100.00
58534;BME280;44109;52.398;7.024;2023-07-02T05:07:06;100456.47;;;18.34;100.00
58534;BME280;44109;52.398;7.024;2023-07-02T05:09:33;100470.00;;;18.79;100.00
58534;BME280;44109;52.398;7.024;2023-07-02T05:12:01;100459.09;;;19.01;100.00
58534;BME280;44109;52.398;7.024;2023-07-02T05:14:29;100456.31;;;19.17;100.00
58534;BME280;44109;52.398;7.024;2023-07-02T05:16:56;100459.31;;;19.26;99.92
58534;BME280;44109;52.398;7.024;2023-07-02T05:19:24;100461.69;;;19.44;97.43
58534;BME280;44109;52.398;7.024;2023-07-02T05:21:53;100460.09;;;19.60;95.43
58534;BME280;44109;52.398;7.024;2023-07-02T05:24:20;100462.66;;;19.70;95.26
58534;BME280;44109;52.398;7.024;2023-07-02T05:26:48;100473.75;;;19.77;91.95
58534;BME280;44109;52.398;7.024;2023-07-02T05:29:16;100471.56;;;19.69;92.13
58534;BME280;44109;52.398;7.024;2023-07-02T05:31:44;100467.34;;;19.77;91.28
58534;BME280;44109;52.398;7.024;2023-07-02T05:34:11;100476.97;;;19.92;90.99
58534;BME280;44109;52.398;7.024;2023-07-02T05:36:39;100475.09;;;20.02;88.99
58534;BME280;44109;52.398;7.024;2023-07-02T05:39:08;100473.44;;;20.05;89.98
58534;BME280;44109;52.398;7.024;2023-07-02T05:41:35;100432.84;;;19.57;89.40
58534;BME280;44109;52.398;7.024;2023-07-02T05:44:03;100473.75;;;20.23;87.89
58534;BME280;44109;52.398;7.024;2023-07-02T05:46:31;100479.88;;;20.34;86.45
58534;BME280;44109;52.398;7.024;2023-07-02T05:48:58;100491.16;;;20.63;84.55
58534;BME280;44109;52.398;7.024;2023-07-02T05:51:26;100470.13;;;20.81;81.90
58534;BME280;44109;52.398;7.024;2023-07-02T05:53:53;100480.31;;;20.62;83.79
58534;BME280;44109;52.398;7.024;2023-07-02T05:56:22;100475.75;;;20.93;81.11
58534;BME280;44109;52.398;7.024;2023-07-02T05:58:50;100471.47;;;20.76;80.27
58534;BME280;44109;52.398;7.024;2023-07-02T06:01:18;100485.44;;;20.80;79.72
58534;BME280;44109;52.398;7.024;2023-07-02T06:03:49;100491.34;;;21.11;81.13
58534;BME280;44109;52.398;7.024;2023-07-02T06:06:17;100496.00;;;21.56;77.06
58534;BME280;44109;52.398;7.024;2023-07-02T06:08:44;100500.03;;;21.16;76.93
58534;BME280;44109;52.398;7.024;2023-07-02T06:11:12;100493.63;;;21.54;76.38
58534;BME280;44109;52.398;7.024;2023-07-02T06:13:41;100506.25;;;21.24;75.40
58534;BME280;44109;52.398;7.024;2023-07-02T06:16:09;100496.53;;;21.25;75.24
58534;BME280;44109;52.398;7.024;2023-07-02T06:18:36;100497.34;;;21.13;74.95
58534;BME280;44109;52.398;7.024;2023-07-02T06:21:04;100505.16;;;21.34;76.30
58534;BME280;44109;52.398;7.024;2023-07-02T06:23:39;100500.28;;;21.60;76.32
58534;BME280;44109;52.398;7.024;2023-07-02T06:26:08;100510.31;;;21.74;74.63
58534;BME280;44109;52.398;7.024;2023-07-02T06:28:36;100487.00;;;21.95;74.08
58534;BME280;44109;52.398;7.024;2023-07-02T06:31:07;100499.66;;;22.60;70.58
58534;BME280;44109;52.398;7.024;2023-07-02T06:33:38;100482.75;;;22.69;70.16
58534;BME280;44109;52.398;7.024;2023-07-02T06:36:06;100506.34;;;22.32;67.25
58534;BME280;44109;52.398;7.024;2023-07-02T06:38:47;100514.94;;;21.81;69.39
58534;BME280;44109;52.398;7.024;2023-07-02T06:41:15;100521.19;;;21.63;70.42
58534;BME280;44109;52.398;7.024;2023-07-02T06:43:43;100515.47;;;21.88;70.61
58534;BME280;44109;52.398;7.024;2023-07-02T06:46:13;100525.88;;;21.91;68.37
58534;BME280;44109;52.398;7.024;2023-07-02T06:48:40;100520.34;;;21.75;68.30
58534;BME280;44109;52.398;7.024;2023-07-02T06:51:08;100525.69;;;21.73;69.00
58534;BME280;44109;52.398;7.024;2023-07-02T06:53:38;100521.50;;;21.65;69.40
58534;BME280;44109;52.398;7.024;2023-07-02T06:56:07;100528.03;;;21.74;69.58
58534;BME280;44109;52.398;7.024;2023-07-02T06:58:35;100528.88;;;21.49;70.42
58534;BME280;44109;52.398;7.024;2023-07-02T07:01:02;100530.97;;;21.84;68.59
58534;BME280;44109;52.398;7.024;2023-07-02T07:03:31;100527.00;;;21.94;68.41
58534;BME280;44109;52.398;7.024;2023-07-02T07:05:59;100542.16;;;21.87;68.89
58534;BME280;44109;52.398;7.024;2023-07-02T07:08:26;100544.84;;;21.91;68.50
58534;BME280;44109;52.398;7.024;2023-07-02T07:10:54;100539.84;;;22.08;65.25
58534;BME280;44109;52.398;7.024;2023-07-02T07:13:22;100542.31;;;22.31;65.88
58534;BME280;44109;52.398;7.024;2023-07-02T07:15:49;100539.84;;;22.08;66.40
58534;BME280;44109;52.398;7.024;2023-07-02T07:18:17;100548.44;;;22.17;65.67
58534;BME280;44109;52.398;7.024;2023-07-02T07:20:47;100498.47;;;21.66;64.81
58534;BME280;44109;52.398;7.024;2023-07-02T07:23:15;100554.19;;;22.48;62.51
58534;BME280;44109;52.398;7.024;2023-07-02T07:25:43;100562.75;;;22.57;62.66
58534;BME280;44109;52.398;7.024;2023-07-02T07:28:11;100538.84;;;22.14;62.58
58534;BME280;44109;52.398;7.024;2023-07-02T07:30:41;100555.81;;;22.93;63.01
58534;BME280;44109;52.398;7.024;2023-07-02T07:33:09;100553.63;;;23.50;59.33
58534;BME280;44109;52.398;7.024;2023-07-02T07:35:37;100553.44;;;22.69;57.69
58534;BME280;44109;52.398;7.024;2023-07-02T07:38:06;100558.88;;;21.69;58.26
58534;BME280;44109;52.398;7.024;2023-07-02T07:40:34;100554.34;;;20.78;61.83
58534;BME280;44109;52.398;7.024;2023-07-02T07:43:01;100578.13;;;20.32;66.67
58534;BME280;44109;52.398;7.024;2023-07-02T07:45:29;100580.59;;;20.30;70.86
58534;BME280;44109;52.398;7.024;2023-07-02T07:47:56;100573.28;;;20.49;72.27
58534;BME280;44109;52.398;7.024;2023-07-02T07:50:24;100553.25;;;20.60;68.16
58534;BME280;44109;52.398;7.024;2023-07-02T07:52:52;100565.63;;;20.78;67.15
58534;BME280;44109;52.398;7.024;2023-07-02T07:55:21;100570.34;;;20.52;66.83
58534;BME280;44109;52.398;7.024;2023-07-02T07:57:48;100575.66;;;20.34;67.40
58534;BME280;44109;52.398;7.024;2023-07-02T08:00:17;100579.03;;;19.80;69.50
58534;BME280;44109;52.398;7.024;2023-07-02T08:02:45;100577.72;;;20.17;70.77
58534;BME280;44109;52.398;7.024;2023-07-02T08:05:13;100574.81;;;19.72;70.34
58534;BME280;44109;52.398;7.024;2023-07-02T08:07:41;100576.66;;;19.79;73.31
58534;BME280;44109;52.398;7.024;2023-07-02T08:10:09;100575.69;;;20.01;75.45
58534;BME280;44109;52.398;7.024;2023-07-02T08:12:38;100579.91;;;20.26;71.95
58534;BME280;44109;52.398;7.024;2023-07-02T08:15:07;100574.06;;;20.33;72.20
58534;BME280;44109;52.398;7.024;2023-07-02T08:17:35;100579.91;;;20.26;72.42
58534;BME280;44109;52.398;7.024;2023-07-02T08:20:03;100580.88;;;20.19;68.51
58534;BME280;44109;52.398;7.024;2023-07-02T08:22:35;100584.22;;;19.82;69.64
58534;BME280;44109;52.398;7.024;2023-07-02T08:25:04;100586.44;;;19.90;72.31
58534;BME280;44109;52.398;7.024;2023-07-02T08:27:32;100578.88;;;20.04;70.80
58534;BME280;44109;52.398;7.024;2023-07-02T08:30:01;100583.13;;;20.41;69.50
58534;BME280;44109;52.398;7.024;2023-07-02T08:32:29;100581.84;;;20.74;67.47
58534;BME280;44109;52.398;7.024;2023-07-02T08:34:58;100595.88;;;20.62;67.89
58534;BME280;44109;52.398;7.024;2023-07-02T08:37:26;100607.19;;;20.29;68.84
58534;BME280;44109;52.398;7.024;2023-07-02T08:39:53;100598.47;;;19.91;68.31
58534;BME280;44109;52.398;7.024;2023-07-02T08:42:21;100598.19;;;20.34;67.72
58534;BME280;44109;52.398;7.024;2023-07-02T08:44:53;100599.69;;;20.55;69.18
58534;BME280;44109;52.398;7.024;2023-07-02T08:47:22;100597.31;;;20.37;66.48
58534;BME280;44109;52.398;7.024;2023-07-02T08:49:50;100605.97;;;20.14;68.03
58534;BME280;44109;52.398;7.024;2023-07-02T08:52:18;100609.03;;;20.52;69.67
58534;BME280;44109;52.398;7.024;2023-07-02T08:54:46;100607.88;;;20.33;72.27
58534;BME280;44109;52.398;7.024;2023-07-02T08:57:13;100612.31;;;20.18;72.83
58534;BME280;44109;52.398;7.024;2023-07-02T08:59:41;100608.75;;;20.63;67.34
58534;BME280;44109;52.398;7.024;2023-07-02T09:02:08;100622.69;;;20.54;70.32
58534;BME280;44109;52.398;7.024;2023-07-02T09:04:37;100619.16;;;20.17;64.83
58534;BME280;44109;52.398;7.024;2023-07-02T09:07:06;100621.44;;;19.53;66.18
58534;BME280;44109;52.398;7.024;2023-07-02T09:09:44;100619.44;;;19.54;67.97
58534;BME280;44109;52.398;7.024;2023-07-02T09:12:23;100628.09;;;19.79;69.75
58534;BME280;44109;52.398;7.024;2023-07-02T09:14:55;100615.06;;;19.69;64.21
58534;BME280;44109;52.398;7.024;2023-07-02T09:17:27;100639.84;;;19.38;65.15
58534;BME280;44109;52.398;7.024;2023-07-02T09:19:58;100623.59;;;19.65;62.07
58534;BME280;44109;52.398;7.024;2023-07-02T09:22:27;100615.94;;;19.66;63.33
58534;BME280;44109;52.398;7.024;2023-07-02T09:24:56;100623.38;;;19.92;65.22
58534;BME280;44109;52.398;7.024;2023-07-02T09:27:33;100636.91;;;19.97;63.56
58534;BME280;44109;52.398;7.024;2023-07-02T09:30:06;100632.63;;;20.09;64.79
58534;BME280;44109;52.398;7.024;2023-07-02T09:32:35;100635.00;;;20.11;62.01
58534;BME280;44109;52.398;7.024;2023-07-02T09:35:05;100638.31;;;19.89;60.54
58534;BME280;44109;52.398;7.024;2023-07-02T09:37:33;100637.53;;;19.89;58.69
58534;BME280;44109;52.398;7.024;2023-07-02T09:40:02;100636.69;;;20.08;59.58
58534;BME280;44109;52.398;7.024;2023-07-02T09:42:31;100627.97;;;20.19;60.85
58534;BME280;44109;52.398;7.024;2023-07-02T09:45:02;100629.19;;;20.34;60.14
58534;BME280;44109;52.398;7.024;2023-07-02T09:47:32;100639.75;;;20.46;60.20
58534;BME280;44109;52.398;7.024;2023-07-02T09:50:04;100630.75;;;20.68;61.24
58534;BME280;44109;52.398;7.024;2023-07-02T09:52:34;100623.34;;;21.03;61.20
58534;BME280;44109;52.398;7.024;2023-07-02T09:55:03;100629.13;;;20.83;60.68
58534;BME280;44109;52.398;7.024;2023-07-02T09:57:31;100624.72;;;20.82;56.41
58534;BME280;44109;52.398;7.024;2023-07-02T09:59:59;100624.41;;;20.64;58.46
58534;BME280;44109;52.398;7.024;2023-07-02T10:02:28;100620.28;;;20.52;60.17
58534;BME280;44109;52.398;7.024;2023-07-02T10:04:56;100631.13;;;20.54;61.16
58534;BME280;44109;52.398;7.024;2023-07-02T10:07:29;100616.41;;;20.46;63.50
58534;BME280;44109;52.398;7.024;2023-07-02T10:09:58;100635.69;;;20.64;60.59
58534;BME280;44109;52.398;7.024;2023-07-02T10:12:26;100636.16;;;20.91;61.65
58534;BME280;44109;52.398;7.024;2023-07-02T10:14:56;100646.56;;;20.94;56.78
58534;BME280;44109;52.398;7.024;2023-07-02T10:17:27;100636.34;;;20.84;54.27
58534;BME280;44109;52.398;7.024;2023-07-02T10:19:58;100638.94;;;21.20;56.35
58534;BME280;44109;52.398;7.024;2023-07-02T10:22:28;100634.22;;;21.30;53.54
58534;BME280;44109;52.398;7.024;2023-07-02T10:24:57;100639.72;;;21.08;54.50
58534;BME280;44109;52.398;7.024;2023-07-02T10:27:33;100643.97;;;21.00;53.71
58534;BME280;44109;52.398;7.024;2023-07-02T10:30:02;100621.50;;;20.96;55.15
58534;BME280;44109;52.398;7.024;2023-07-02T10:32:32;100649.09;;;21.18;55.63
58534;BME280;44109;52.398;7.024;2023-07-02T10:35:01;100667.56;;;20.77;52.54
58534;BME280;44109;52.398;7.024;2023-07-02T10:37:37;100652.78;;;20.24;53.14
58534;BME280;44109;52.398;7.024;2023-07-02T10:40:07;100661.25;;;20.08;54.56
58534;BME280;44109;52.398;7.024;2023-07-02T10:42:45;100651.44;;;19.96;52.53
58534;BME280;44109;52.398;7.024;2023-07-02T10:45:13;100660.34;;;19.94;56.22
58534;BME280;44109;52.398;7.024;2023-07-02T10:47:42;100657.91;;;20.13;56.72
58534;BME280;44109;52.398;7.024;2023-07-02T10:50:19;100650.41;;;20.55;59.72
58534;BME280;44109;52.398;7.024;2023-07-02T10:52:50;100655.41;;;20.64;52.96
58534;BME280;44109;52.398;7.024;2023-07-02T10:55:18;100668.41;;;20.90;53.99
58534;BME280;44109;52.398;7.024;2023-07-02T10:57:47;100663.16;;;20.76;54.00
58534;BME280;44109;52.398;7.024;2023-07-02T11:00:17;100667.22;;;20.42;53.33
58534;BME280;44109;52.398;7.024;2023-07-02T11:02:45;100661.78;;;20.35;53.97
58534;BME280;44109;52.398;7.024;2023-07-02T11:05:13;100666.25;;;20.65;53.77
58534;BME280;44109;52.398;7.024;2023-07-02T11:07:41;100675.16;;;20.47;54.78
58534;BME280;44109;52.398;7.024;2023-07-02T11:10:18;100673.09;;;20.81;55.03
58534;BME280;44109;52.398;7.024;2023-07-02T11:12:46;100659.47;;;21.21;51.91
58534;BME280;44109;52.398;7.024;2023-07-02T11:15:15;100663.97;;;21.47;51.84
58534;BME280;44109;52.398;7.024;2023-07-02T11:17:44;100663.41;;;21.52;53.63
58534;BME280;44109;52.398;7.024;2023-07-02T11:20:12;100666.59;;;21.55;51.31
58534;BME280;44109;52.398;7.024;2023-07-02T11:22:41;100666.66;;;21.38;53.67
58534;BME280;44109;52.398;7.024;2023-07-02T11:25:11;100667.41;;;21.26;52.02
58534;BME280;44109;52.398;7.024;2023-07-02T11:27:39;100677.00;;;21.83;56.17
58534;BME280;44109;52.398;7.024;2023-07-02T11:30:08;100679.06;;;21.95;52.42
58534;BME280;44109;52.398;7.024;2023-07-02T11:32:47;100656.91;;;21.81;51.28
58534;BME280;44109;52.398;7.024;2023-07-02T11:35:16;100666.81;;;21.47;49.76
58534;BME280;44109;52.398;7.024;2023-07-02T11:37:45;100680.59;;;21.45;53.15
58534;BME280;44109;52.398;7.024;2023-07-02T11:40:17;100678.41;;;21.37;52.65
58534;BME280;44109;52.398;7.024;2023-07-02T11:42:46;100681.41;;;21.84;54.20
58534;BME280;44109;52.398;7.024;2023-07-02T11:45:13;100678.03;;;22.02;52.73
58534;BME280;44109;52.398;7.024;2023-07-02T11:47:41;100681.31;;;22.00;52.61
58534;BME280;44109;52.398;7.024;2023-07-02T11:50:09;100685.59;;;21.67;49.56
58534;BME280;44109;52.398;7.024;2023-07-02T11:52:38;100684.13;;;21.62;50.81
58534;BME280;44109;52.398;7.024;2023-07-02T11:55:06;100694.94;;;21.22;49.31
58534;BME280;44109;52.398;7.024;2023-07-02T11:57:35;100686.50;;;21.06;50.10
58534;BME280;44109;52.398;7.024;2023-07-02T12:00:05;100680.72;;;21.55;49.98
58534;BME280;44109;52.398;7.024;2023-07-02T12:02:34;100688.66;;;21.31;50.84
58534;BME280;44109;52.398;7.024;2023-07-02T12:05:01;100695.03;;;21.47;50.41
58534;BME280;44109;52.398;7.024;2023-07-02T12:07:30;100688.81;;;21.52;49.48
58534;BME280;44109;52.398;7.024;2023-07-02T12:09:57;100683.41;;;21.45;46.19
58534;BME280;44109;52.398;7.024;2023-07-02T12:12:25;100688.75;;;21.27;47.12
58534;BME280;44109;52.398;7.024;2023-07-02T12:14:54;100675.41;;;21.57;48.21
58534;BME280;44109;52.398;7.024;2023-07-02T12:17:21;100688.75;;;21.69;48.37
58534;BME280;44109;52.398;7.024;2023-07-02T12:19:49;100695.69;;;21.39;48.07
58534;BME280;44109;52.398;7.024;2023-07-02T12:22:16;100705.00;;;21.07;49.58
58534;BME280;44109;52.398;7.024;2023-07-02T12:24:44;100705.31;;;21.25;49.38
58534;BME280;44109;52.398;7.024;2023-07-02T12:27:12;100703.66;;;20.98;49.63
58534;BME280;44109;52.398;7.024;2023-07-02T12:29:39;100709.22;;;21.31;50.68
58534;BME280;44109;52.398;7.024;2023-07-02T12:32:08;100699.59;;;21.83;51.86
58534;BME280;44109;52.398;7.024;2023-07-02T12:34:36;100696.63;;;21.48;49.57
58534;BME280;44109;52.398;7.024;2023-07-02T12:37:04;100706.31;;;21.47;48.87
58534;BME280;44109;52.398;7.024;2023-07-02T12:39:32;100702.94;;;21.52;49.31
58534;BME280;44109;52.398;7.024;2023-07-02T12:42:00;100713.88;;;20.43;52.47
58534;BME280;44109;52.398;7.024;2023-07-02T12:44:28;100705.72;;;20.49;51.44
58534;BME280;44109;52.398;7.024;2023-07-02T12:46:55;100713.47;;;21.07;52.96
58534;BME280;44109;52.398;7.024;2023-07-02T12:49:24;100711.06;;;21.50;48.87
58534;BME280;44109;52.398;7.024;2023-07-02T12:51:52;100705.22;;;21.70;50.26
58534;BME280;44109;52.398;7.024;2023-07-02T12:54:19;100716.38;;;22.16;49.08